Time;durP1;ratioP1;P1;durP2;ratioP2;P2;SDS_P1;SDS_P2;PMS_P1;PMS_P2;Temp;Humidity;BMP_temperature;BMP_pressure;BME280_temperature;BME280_humidity;BME280_pressure;Samples;Min_cycle;Max_cycle;Signal;HPM_P1;HPM_P2
2023/03/17 00:00:46;;;;;;;;;;;18.80;85.00;;;;;;5116456;28;19908;-56
2023/03/17 00:03:20;;;;;;;;;;;18.80;85.30;;;;;;5116329;28;20432;-54
2023/03/17 00:05:46;;;;;;;;;;;18.80;85.30;;;;;;5116077;28;19914;-54
2023/03/17 00:08:18;;;;;;;;;;;18.90;85.30;;;;;;5116174;28;19998;-53
2023/03/17 00:10:43;;;;;;;;;;;18.90;85.40;;;;;;5115910;28;19912;-55
2023/03/17 00:13:09;;;;;;;;;;;18.80;85.40;;;;;;5116037;28;19914;-55
2023/03/17 00:15:34;;;;;;;;;;;18.90;85.50;;;;;;5115813;28;20042;-55
2023/03/17 00:18:00;;;;;;;;;;;18.90;85.40;;;;;;5115752;28;19912;-57
2023/03/17 00:20:27;;;;;;;;;;;18.90;85.40;;;;;;5116016;28;20394;-55
2023/03/17 00:22:54;;;;;;;;;;;18.90;85.30;;;;;;5116309;28;19958;-56
2023/03/17 00:25:22;;;;;;;;;;;18.80;85.20;;;;;;5116207;28;19915;-55
2023/03/17 00:27:48;;;;;;;;;;;18.80;85.20;;;;;;5115443;28;19922;-55
2023/03/17 00:30:14;;;;;;;;;;;18.80;85.20;;;;;;5115779;28;20369;-56
2023/03/17 00:32:39;;;;;;;;;;;18.80;85.20;;;;;;5115598;28;19959;-57
2023/03/17 00:35:15;;;;;;;;;;;18.80;85.20;;;;;;5115358;28;19915;-56
2023/03/17 00:37:40;;;;;;;;;;;18.80;85.20;;;;;;5115413;28;19922;-55
2023/03/17 00:40:35;;;;;;;;;;;18.80;85.10;;;;;;5115287;28;19982;-56
2023/03/17 00:43:02;;;;;;;;;;;18.80;85.10;;;;;;5101909;28;19916;-57
2023/03/17 00:45:28;;;;;;;;;;;18.80;85.20;;;;;;5115160;28;19931;-54
2023/03/17 00:47:54;;;;;;;;;;;18.80;85.20;;;;;;5115365;28;19916;-56
2023/03/17 00:50:25;;;;;;;;;;;18.80;85.20;;;;;;5115906;28;20355;-54
2023/03/17 00:52:51;;;;;;;;;;;18.80;85.20;;;;;;5115336;28;19918;-57
2023/03/17 00:55:18;;;;;;;;;;;18.80;85.30;;;;;;5114946;28;20367;-56
2023/03/17 00:57:44;;;;;;;;;;;18.80;85.30;;;;;;5114424;28;20316;-56
2023/03/17 01:00:17;;;;;;;;;;;18.80;85.20;;;;;;5115298;28;19911;-55
2023/03/17 01:02:43;;;;;;;;;;;18.80;85.30;;;;;;5115183;28;19908;-55
2023/03/17 01:05:09;;;;;;;;;;;18.80;85.30;;;;;;5114783;28;20285;-54
2023/03/17 01:07:35;;;;;;;;;;;18.80;85.20;;;;;;5115037;28;19918;-56
2023/03/17 01:10:01;;;;;;;;;;;18.80;85.30;;;;;;5114773;28;19915;-55
2023/03/17 01:12:27;;;;;;;;;;;18.80;85.40;;;;;;5115346;28;19915;-51
2023/03/17 01:14:53;;;;;;;;;;;18.80;85.40;;;;;;5114763;28;19907;-56
2023/03/17 01:17:19;;;;;;;;;;;18.80;85.50;;;;;;5115001;28;19931;-55
2023/03/17 01:19:45;;;;;;;;;;;18.80;85.50;;;;;;5114973;28;19908;-54
2023/03/17 01:22:11;;;;;;;;;;;18.80;85.70;;;;;;5114851;28;19912;-56
2023/03/17 01:24:36;;;;;;;;;;;18.80;85.60;;;;;;5114789;28;19914;-57
2023/03/17 01:27:02;;;;;;;;;;;18.80;85.60;;;;;;5114510;28;20255;-58
2023/03/17 01:29:27;;;;;;;;;;;18.80;85.50;;;;;;5114778;28;19951;-57
2023/03/17 01:31:53;;;;;;;;;;;18.80;85.60;;;;;;5114794;28;19914;-58
2023/03/17 01:34:18;;;;;;;;;;;18.80;85.50;;;;;;5114708;28;20360;-57
2023/03/17 01:36:44;;;;;;;;;;;18.80;85.50;;;;;;5114395;28;19912;-57
2023/03/17 01:39:10;;;;;;;;;;;18.80;85.40;;;;;;5114309;28;19907;-57
2023/03/17 01:41:36;;;;;;;;;;;18.80;85.30;;;;;;5114534;28;19931;-56
2023/03/17 01:44:02;;;;;;;;;;;18.80;85.30;;;;;;5114577;28;19958;-52
2023/03/17 01:46:28;;;;;;;;;;;18.80;85.30;;;;;;5114516;28;20335;-54
2023/03/17 01:49:14;;;;;;;;;;;18.80;85.20;;;;;;5114566;28;19912;-56
2023/03/17 01:51:59;;;;;;;;;;;18.80;85.20;;;;;;5114236;28;19915;-55
2023/03/17 01:54:29;;;;;;;;;;;18.70;85.20;;;;;;5114172;28;19951;-51
2023/03/17 01:56:57;;;;;;;;;;;18.70;85.20;;;;;;5114162;28;19914;-55
2023/03/17 01:59:25;;;;;;;;;;;18.70;85.30;;;;;;5114150;28;19908;-56
2023/03/17 02:01:53;;;;;;;;;;;18.70;85.30;;;;;;5114419;28;20255;-56
2023/03/17 02:04:19;;;;;;;;;;;18.70;85.40;;;;;;5114146;28;19933;-55
2023/03/17 02:06:46;;;;;;;;;;;18.70;85.50;;;;;;5114256;28;19977;-56
2023/03/17 02:09:12;;;;;;;;;;;18.70;85.50;;;;;;5115644;28;19919;-56
2023/03/17 02:11:37;;;;;;;;;;;18.70;85.60;;;;;;5118468;28;20262;-55
2023/03/17 02:14:03;;;;;;;;;;;18.60;85.60;;;;;;5118109;28;19957;-57
2023/03/17 02:16:28;;;;;;;;;;;18.60;85.60;;;;;;5118473;28;19915;-56
2023/03/17 02:18:54;;;;;;;;;;;18.60;85.60;;;;;;5118400;28;19994;-56
2023/03/17 02:21:35;;;;;;;;;;;18.70;85.60;;;;;;5118303;28;20007;-54
2023/03/17 02:24:01;;;;;;;;;;;18.70;85.50;;;;;;5118191;28;20354;-56
2023/03/17 02:26:28;;;;;;;;;;;18.70;85.50;;;;;;5117895;28;19911;-57
2023/03/17 02:28:54;;;;;;;;;;;18.80;85.50;;;;;;5118209;28;19958;-54
2023/03/17 02:31:20;;;;;;;;;;;18.90;85.30;;;;;;5099997;28;19912;-55
2023/03/17 02:33:45;;;;;;;;;;;19.00;85.30;;;;;;5118098;28;19908;-55
2023/03/17 02:36:10;;;;;;;;;;;19.00;85.10;;;;;;5117738;28;19912;-56
2023/03/17 02:38:36;;;;;;;;;;;19.00;85.00;;;;;;5117968;28;19908;-54
2023/03/17 02:41:02;;;;;;;;;;;19.00;84.90;;;;;;5117663;28;20415;-56
2023/03/17 02:43:27;;;;;;;;;;;19.10;84.90;;;;;;5117923;28;19908;-55
2023/03/17 02:45:53;;;;;;;;;;;19.10;85.00;;;;;;5117544;28;19908;-56
2023/03/17 02:48:18;;;;;;;;;;;19.10;85.30;;;;;;5117562;28;20235;-56
2023/03/17 02:50:44;;;;;;;;;;;19.10;85.20;;;;;;5117812;28;19907;-56
2023/03/17 02:53:09;;;;;;;;;;;19.10;85.20;;;;;;5117466;28;19908;-54
2023/03/17 02:55:35;;;;;;;;;;;19.00;85.30;;;;;;5117704;28;19915;-57
2023/03/17 02:58:02;;;;;;;;;;;19.10;85.30;;;;;;5117433;28;19912;-57
2023/03/17 03:00:27;;;;;;;;;;;19.00;85.20;;;;;;5099281;28;19908;-52
2023/03/17 03:02:53;;;;;;;;;;;19.10;85.10;;;;;;5117547;28;19914;-56
2023/03/17 03:05:19;;;;;;;;;;;19.00;85.00;;;;;;5117264;28;20363;-57
2023/03/17 03:07:44;;;;;;;;;;;19.00;85.00;;;;;;5117390;28;19912;-55
2023/03/17 03:10:10;;;;;;;;;;;19.00;85.00;;;;;;5117402;28;19912;-57
2023/03/17 03:12:35;;;;;;;;;;;19.00;85.00;;;;;;5117403;28;19990;-55
2023/03/17 03:15:01;;;;;;;;;;;19.00;85.00;;;;;;5099076;28;20377;-57
2023/03/17 03:17:26;;;;;;;;;;;18.90;85.10;;;;;;5117031;28;20362;-57
2023/03/17 03:19:52;;;;;;;;;;;18.90;85.10;;;;;;5117203;28;19908;-54
2023/03/17 03:22:17;;;;;;;;;;;18.90;85.60;;;;;;5098385;28;19912;-55
2023/03/17 03:24:43;;;;;;;;;;;18.80;85.00;;;;;;5117082;28;19915;-56
2023/03/17 03:27:08;;;;;;;;;;;18.90;85.10;;;;;;5117199;28;19911;-55
2023/03/17 03:29:34;;;;;;;;;;;18.80;85.10;;;;;;5116769;28;19912;-54
2023/03/17 03:32:00;;;;;;;;;;;18.80;85.10;;;;;;5117003;28;19927;-57
2023/03/17 03:34:26;;;;;;;;;;;18.80;85.20;;;;;;5116898;28;19908;-54
2023/03/17 03:36:52;;;;;;;;;;;18.70;85.20;;;;;;5116884;28;19947;-57
2023/03/17 03:39:17;;;;;;;;;;;18.70;85.30;;;;;;5116783;28;20019;-56
2023/03/17 03:41:43;;;;;;;;;;;18.70;85.30;;;;;;5098355;28;19980;-54
2023/03/17 03:44:08;;;;;;;;;;;18.70;85.30;;;;;;5116758;28;20017;-54
2023/03/17 03:46:34;;;;;;;;;;;18.70;85.40;;;;;;5116629;28;19912;-55
2023/03/17 03:48:59;;;;;;;;;;;18.70;85.40;;;;;;5116657;28;20270;-53
2023/03/17 03:51:25;;;;;;;;;;;18.70;85.30;;;;;;5116546;28;19915;-55
2023/03/17 03:53:50;;;;;;;;;;;18.70;85.40;;;;;;5116516;28;19911;-55
2023/03/17 03:56:16;;;;;;;;;;;18.70;85.50;;;;;;5116609;28;20262;-54
2023/03/17 03:58:41;;;;;;;;;;;18.70;85.50;;;;;;5116095;28;19908;-57
2023/03/17 04:01:08;;;;;;;;;;;18.70;85.40;;;;;;5115639;28;19908;-55
2023/03/17 04:03:34;;;;;;;;;;;18.70;85.30;;;;;;5103434;28;20007;-58
2023/03/17 04:06:00;;;;;;;;;;;18.80;85.40;;;;;;5115925;28;19916;-57
2023/03/17 04:08:26;;;;;;;;;;;18.80;85.40;;;;;;5122956;27;20306;-56
2023/03/17 04:10:51;;;;;;;;;;;18.80;85.30;;;;;;5123222;27;19961;-55
2023/03/17 04:13:17;;;;;;;;;;;18.90;85.40;;;;;;5115935;28;19908;-52
2023/03/17 04:15:43;;;;;;;;;;;18.90;85.50;;;;;;5115559;28;19907;-52
2023/03/17 04:18:08;;;;;;;;;;;18.90;85.40;;;;;;5113534;28;19912;-55
2023/03/17 04:20:34;;;;;;;;;;;18.90;85.50;;;;;;5104014;28;19929;-56
2023/03/17 04:22:59;;;;;;;;;;;18.90;85.30;;;;;;5119396;27;19976;-56
2023/03/17 04:25:25;;;;;;;;;;;18.80;85.30;;;;;;5115576;28;19907;-56
2023/03/17 04:27:51;;;;;;;;;;;18.90;85.40;;;;;;5119781;27;20385;-52
2023/03/17 04:30:17;;;;;;;;;;;18.90;85.50;;;;;;5115734;28;20007;-56
2023/03/17 04:32:43;;;;;;;;;;;18.80;85.40;;;;;;5114455;28;20346;-56
2023/03/17 04:35:11;;;;;;;;;;;18.80;85.90;;;;;;5115375;28;19908;-54
2023/03/17 04:37:37;;;;;;;;;;;18.80;85.30;;;;;;5115549;28;19908;-55
2023/03/17 04:40:04;;;;;;;;;;;18.80;85.10;;;;;;5115001;28;19933;-56
2023/03/17 04:42:29;;;;;;;;;;;18.80;85.20;;;;;;5115263;28;19907;-53
2023/03/17 04:44:54;;;;;;;;;;;18.80;85.20;;;;;;5115627;28;20372;-56
2023/03/17 04:47:20;;;;;;;;;;;18.80;85.10;;;;;;5128288;27;19923;-54
2023/03/17 04:49:45;;;;;;;;;;;18.80;85.10;;;;;;5136031;27;19911;-57
2023/03/17 04:52:11;;;;;;;;;;;18.80;85.20;;;;;;5135851;27;19915;-55
2023/03/17 04:54:36;;;;;;;;;;;18.70;85.10;;;;;;5135905;27;19908;-56
2023/03/17 04:57:02;;;;;;;;;;;18.70;85.10;;;;;;5135854;27;19908;-56
2023/03/17 04:59:27;;;;;;;;;;;18.70;85.20;;;;;;5119924;27;19912;-53
2023/03/17 05:01:53;;;;;;;;;;;18.70;85.20;;;;;;5131477;27;20012;-55
2023/03/17 05:04:19;;;;;;;;;;;18.70;85.20;;;;;;5135570;27;19908;-55
2023/03/17 05:06:44;;;;;;;;;;;18.70;85.20;;;;;;5135314;27;20008;-55
2023/03/17 05:09:10;;;;;;;;;;;18.70;85.10;;;;;;5126965;27;19920;-56
2023/03/17 05:11:35;;;;;;;;;;;18.70;85.10;;;;;;5116023;27;19926;-57
2023/03/17 05:14:01;;;;;;;;;;;18.70;85.10;;;;;;5112862;28;19912;-52
2023/03/17 05:16:26;;;;;;;;;;;18.70;85.10;;;;;;5113682;28;19919;-53
2023/03/17 05:18:52;;;;;;;;;;;18.70;85.40;;;;;;5112755;28;20049;-53
2023/03/17 05:21:17;;;;;;;;;;;18.70;85.60;;;;;;5114056;28;19912;-55
2023/03/17 05:23:43;;;;;;;;;;;18.70;86.00;;;;;;5112768;28;20377;-56
2023/03/17 05:26:09;;;;;;;;;;;18.70;85.40;;;;;;5113286;28;19965;-52
2023/03/17 05:28:34;;;;;;;;;;;18.70;85.30;;;;;;5112386;28;20381;-54
2023/03/17 05:31:00;;;;;;;;;;;18.70;85.10;;;;;;5113425;28;20002;-55
2023/03/17 05:33:26;;;;;;;;;;;18.70;85.10;;;;;;5112620;28;19912;-55
2023/03/17 05:35:52;;;;;;;;;;;18.70;85.00;;;;;;5110800;28;19919;-53
2023/03/17 05:38:17;;;;;;;;;;;18.70;85.00;;;;;;5114586;28;19907;-56
2023/03/17 05:40:43;;;;;;;;;;;18.70;85.00;;;;;;5111573;28;19926;-56
2023/03/17 05:43:09;;;;;;;;;;;18.70;84.90;;;;;;5114442;28;20317;-55
2023/03/17 05:45:34;;;;;;;;;;;18.70;84.90;;;;;;5111895;28;19969;-52
2023/03/17 05:48:00;;;;;;;;;;;18.70;84.80;;;;;;5114024;28;19968;-56
2023/03/17 05:50:26;;;;;;;;;;;18.70;84.80;;;;;;5112302;28;19915;-54
2023/03/17 05:52:52;;;;;;;;;;;18.70;84.80;;;;;;5114487;28;20006;-54
2023/03/17 05:55:18;;;;;;;;;;;18.70;84.80;;;;;;5113382;28;19944;-55
2023/03/17 05:57:44;;;;;;;;;;;18.70;84.80;;;;;;5112629;28;20012;-51
2023/03/17 06:00:10;;;;;;;;;;;18.60;84.70;;;;;;5113619;28;20045;-55
2023/03/17 06:02:36;;;;;;;;;;;18.60;84.70;;;;;;5112393;28;19964;-55
2023/03/17 06:05:02;;;;;;;;;;;18.60;84.70;;;;;;5114260;28;19915;-55
2023/03/17 06:07:28;;;;;;;;;;;18.60;84.70;;;;;;5111979;28;19920;-55
2023/03/17 06:09:53;;;;;;;;;;;18.60;84.70;;;;;;5112727;28;19922;-56
2023/03/17 06:12:18;;;;;;;;;;;18.60;84.70;;;;;;5113234;28;19918;-53
2023/03/17 06:14:44;;;;;;;;;;;18.60;84.80;;;;;;5110851;28;19919;-53
2023/03/17 06:17:11;;;;;;;;;;;18.60;84.70;;;;;;5112391;28;19916;-56
2023/03/17 06:19:36;;;;;;;;;;;18.60;84.70;;;;;;5112213;28;19927;-56
2023/03/17 06:22:02;;;;;;;;;;;18.60;85.00;;;;;;5110334;28;19915;-57
2023/03/17 06:24:27;;;;;;;;;;;18.60;85.10;;;;;;5112947;28;19920;-58
2023/03/17 06:26:53;;;;;;;;;;;18.50;85.10;;;;;;5111894;28;19915;-58
2023/03/17 06:29:18;;;;;;;;;;;18.50;85.50;;;;;;5114177;28;19915;-61
2023/03/17 06:31:49;;;;;;;;;;;18.50;85.10;;;;;;5125091;28;19907;-63
2023/03/17 06:34:15;;;;;;;;;;;18.50;85.10;;;;;;5118093;28;19911;-62
2023/03/17 06:36:42;;;;;;;;;;;18.50;85.10;;;;;;5092428;28;20314;-62
2023/03/17 06:39:08;;;;;;;;;;;18.50;85.20;;;;;;5113919;28;19915;-61
2023/03/17 06:41:34;;;;;;;;;;;18.50;85.30;;;;;;5112804;28;19995;-61
2023/03/17 06:44:00;;;;;;;;;;;18.50;85.40;;;;;;5120164;28;19915;-62
2023/03/17 06:49:34;;;;;;;;;;;18.40;85.60;;;;;;5134243;28;19919;-62
2023/03/17 06:52:00;;;;;;;;;;;18.40;85.60;;;;;;5114112;28;19912;-60
2023/03/17 06:54:25;;;;;;;;;;;18.40;85.80;;;;;;5113880;28;19908;-54
2023/03/17 06:56:51;;;;;;;;;;;18.40;85.90;;;;;;5115058;28;19919;-57
2023/03/17 06:59:17;;;;;;;;;;;18.40;86.00;;;;;;5112526;28;19915;-59
2023/03/17 07:01:43;;;;;;;;;;;18.40;86.10;;;;;;5115607;28;19980;-53
2023/03/17 07:04:08;;;;;;;;;;;18.30;86.10;;;;;;5114601;28;19919;-61
2023/03/17 07:06:34;;;;;;;;;;;18.30;86.20;;;;;;5097158;28;19972;-58
2023/03/17 07:08:59;;;;;;;;;;;18.30;86.20;;;;;;5117019;28;19919;-59
2023/03/17 07:11:25;;;;;;;;;;;18.30;86.30;;;;;;5115787;28;19912;-61
2023/03/17 07:13:50;;;;;;;;;;;18.30;86.30;;;;;;5115679;28;20010;-61
2023/03/17 07:16:18;;;;;;;;;;;18.30;86.40;;;;;;5117167;28;20266;-58
2023/03/17 07:18:44;;;;;;;;;;;18.30;86.40;;;;;;5115307;28;19939;-62
2023/03/17 07:21:09;;;;;;;;;;;18.30;86.40;;;;;;5115509;28;20313;-58
2023/03/17 07:23:34;;;;;;;;;;;18.30;86.40;;;;;;5097789;28;19918;-57
2023/03/17 07:26:01;;;;;;;;;;;18.30;86.50;;;;;;5115763;28;19922;-60
2023/03/17 07:28:26;;;;;;;;;;;18.30;86.50;;;;;;5113460;28;19916;-58
2023/03/17 07:30:52;;;;;;;;;;;18.30;86.50;;;;;;5114139;28;19919;-58
2023/03/17 07:33:20;;;;;;;;;;;18.30;86.50;;;;;;5116694;28;19957;-59
2023/03/17 07:35:46;;;;;;;;;;;18.30;86.60;;;;;;5124601;27;19919;-62
2023/03/17 07:38:11;;;;;;;;;;;18.30;86.50;;;;;;5116751;28;19934;-62
2023/03/17 07:40:37;;;;;;;;;;;18.30;86.60;;;;;;5116469;28;19920;-62
2023/03/17 07:43:03;;;;;;;;;;;18.30;86.60;;;;;;5115399;28;19911;-60
2023/03/17 07:45:29;;;;;;;;;;;18.30;86.80;;;;;;5113119;28;19980;-61
2023/03/17 07:47:54;;;;;;;;;;;18.20;87.00;;;;;;5113195;28;19993;-60
2023/03/17 07:50:20;;;;;;;;;;;18.20;86.80;;;;;;5111307;28;19966;-59
2023/03/17 07:52:45;;;;;;;;;;;18.20;86.70;;;;;;5112116;28;20426;-57
2023/03/17 07:55:11;;;;;;;;;;;18.30;86.50;;;;;;5097317;28;19947;-59
2023/03/17 07:57:37;;;;;;;;;;;18.30;86.60;;;;;;5115137;28;19915;-56
2023/03/17 08:00:03;;;;;;;;;;;18.30;86.60;;;;;;5114504;28;20342;-55
2023/03/17 08:02:30;;;;;;;;;;;18.30;86.60;;;;;;5115875;28;19939;-57
2023/03/17 08:04:56;;;;;;;;;;;18.20;86.60;;;;;;5114738;28;19985;-60
2023/03/17 08:07:21;;;;;;;;;;;18.20;86.60;;;;;;5115698;28;19916;-60
2023/03/17 08:09:46;;;;;;;;;;;18.20;86.70;;;;;;5114275;28;20294;-59
2023/03/17 08:12:12;;;;;;;;;;;18.20;86.60;;;;;;5114058;28;19973;-59
2023/03/17 08:14:38;;;;;;;;;;;18.20;86.60;;;;;;5115620;28;19958;-59
2023/03/17 08:17:03;;;;;;;;;;;18.30;86.50;;;;;;5114321;28;19962;-61
2023/03/17 08:19:29;;;;;;;;;;;18.30;86.50;;;;;;5115498;28;19908;-60
2023/03/17 08:21:54;;;;;;;;;;;18.30;86.50;;;;;;5113473;28;19928;-60
2023/03/17 08:24:20;;;;;;;;;;;18.30;86.50;;;;;;5104968;28;19938;-58
2023/03/17 08:26:48;;;;;;;;;;;18.30;86.50;;;;;;5113558;28;19916;-59
2023/03/17 08:29:14;;;;;;;;;;;18.30;86.60;;;;;;5109693;28;19916;-56
2023/03/17 08:31:40;;;;;;;;;;;18.30;86.50;;;;;;5111554;28;19951;-61
2023/03/17 08:34:06;;;;;;;;;;;18.30;86.60;;;;;;5108969;28;19950;-62
2023/03/17 08:36:32;;;;;;;;;;;18.30;86.20;;;;;;5133279;27;19908;-62
2023/03/17 08:38:57;;;;;;;;;;;18.30;86.40;;;;;;5136125;27;19972;-62
2023/03/17 08:41:23;;;;;;;;;;;18.30;86.50;;;;;;5135931;27;19927;-58
2023/03/17 08:43:49;;;;;;;;;;;18.30;86.40;;;;;;5136229;27;19908;-59
2023/03/17 08:46:19;;;;;;;;;;;18.30;86.30;;;;;;5135624;27;19911;-57
2023/03/17 08:48:46;;;;;;;;;;;18.30;86.30;;;;;;5135345;27;19934;-57
2023/03/17 08:51:13;;;;;;;;;;;18.30;86.30;;;;;;5135735;27;19915;-57
2023/03/17 08:53:39;;;;;;;;;;;18.30;86.20;;;;;;5135467;27;20369;-56
2023/03/17 08:56:05;;;;;;;;;;;18.30;86.20;;;;;;5135370;27;20361;-57
2023/03/17 08:58:31;;;;;;;;;;;18.30;86.20;;;;;;5135506;27;20011;-56
2023/03/17 09:00:58;;;;;;;;;;;18.30;86.10;;;;;;5135508;27;20385;-58
2023/03/17 09:03:24;;;;;;;;;;;18.30;86.00;;;;;;5135664;27;20262;-57
2023/03/17 09:05:50;;;;;;;;;;;18.30;86.00;;;;;;5135177;27;19907;-58
2023/03/17 09:08:16;;;;;;;;;;;18.30;85.90;;;;;;5116939;27;19915;-58
2023/03/17 09:10:41;;;;;;;;;;;18.30;85.90;;;;;;5135488;27;20235;-58
2023/03/17 09:13:07;;;;;;;;;;;18.30;85.90;;;;;;5135385;27;19907;-57
2023/03/17 09:15:33;;;;;;;;;;;18.30;85.80;;;;;;5135325;27;19914;-57
2023/03/17 09:17:59;;;;;;;;;;;18.30;85.80;;;;;;5134963;27;19908;-58
2023/03/17 09:20:25;;;;;;;;;;;18.30;85.80;;;;;;5122801;27;20019;-53
2023/03/17 09:22:51;;;;;;;;;;;18.30;85.80;;;;;;5096077;28;20002;-57
2023/03/17 09:25:17;;;;;;;;;;;18.30;85.80;;;;;;5108592;28;19957;-57
2023/03/17 09:27:43;;;;;;;;;;;18.30;85.80;;;;;;5111800;28;19916;-58
2023/03/17 09:30:09;;;;;;;;;;;18.30;85.80;;;;;;5113750;28;20333;-58
2023/03/17 09:32:35;;;;;;;;;;;18.30;85.70;;;;;;5107813;28;19912;-63
2023/03/17 09:35:02;;;;;;;;;;;18.30;85.60;;;;;;5114900;27;19923;-63
2023/03/17 09:37:28;;;;;;;;;;;18.30;85.60;;;;;;5114641;27;20339;-61
2023/03/17 09:39:53;;;;;;;;;;;18.30;85.60;;;;;;5110421;28;19912;-61
2023/03/17 09:42:28;;;;;;;;;;;18.30;85.70;;;;;;5114723;28;19920;-61
2023/03/17 09:44:54;;;;;;;;;;;18.30;85.60;;;;;;5110930;28;19911;-60
2023/03/17 09:47:31;;;;;;;;;;;18.30;85.70;;;;;;5109664;28;19922;-58
2023/03/17 09:49:59;;;;;;;;;;;18.30;85.70;;;;;;5112070;28;19916;-63
2023/03/17 09:52:30;;;;;;;;;;;18.30;85.70;;;;;;5111274;28;19978;-59
2023/03/17 09:54:55;;;;;;;;;;;18.30;85.80;;;;;;5112427;28;19908;-57
2023/03/17 09:57:33;;;;;;;;;;;18.30;85.80;;;;;;5111952;28;19922;-58
2023/03/17 10:00:05;;;;;;;;;;;18.30;85.80;;;;;;5112624;28;19908;-58
2023/03/17 10:02:32;;;;;;;;;;;18.30;85.80;;;;;;5112594;28;19916;-55
2023/03/17 10:05:06;;;;;;;;;;;18.30;86.30;;;;;;5113205;28;19954;-59
2023/03/17 10:07:39;;;;;;;;;;;18.30;85.90;;;;;;5107108;28;20259;-63
2023/03/17 10:10:13;;;;;;;;;;;18.30;86.40;;;;;;5104555;28;19992;-61
2023/03/17 10:12:51;;;;;;;;;;;18.30;85.90;;;;;;5096183;28;19908;-57
2023/03/17 10:15:22;;;;;;;;;;;18.30;85.90;;;;;;5110025;28;19912;-58
2023/03/17 10:17:50;;;;;;;;;;;18.30;86.00;;;;;;5114105;28;19912;-64
2023/03/17 10:20:20;;;;;;;;;;;18.30;86.10;;;;;;5111715;28;19919;-63
2023/03/17 10:22:57;;;;;;;;;;;18.40;86.20;;;;;;5114053;28;19911;-63
2023/03/17 10:25:33;;;;;;;;;;;18.40;86.00;;;;;;5110022;28;20003;-63
2023/03/17 10:28:04;;;;;;;;;;;18.40;86.00;;;;;;5113913;28;20019;-60
2023/03/17 10:30:32;;;;;;;;;;;18.40;86.00;;;;;;5112426;28;19931;-60
2023/03/17 10:32:59;;;;;;;;;;;18.40;86.00;;;;;;5115405;28;19945;-61
2023/03/17 10:35:24;;;;;;;;;;;18.40;86.00;;;;;;5112957;28;20394;-59
2023/03/17 10:37:50;;;;;;;;;;;18.40;86.00;;;;;;5113191;28;19955;-60
2023/03/17 10:40:19;;;;;;;;;;;18.40;86.00;;;;;;5113653;28;19916;-58
2023/03/17 10:42:46;;;;;;;;;;;18.40;86.00;;;;;;5117895;28;19911;-58
2023/03/17 10:45:26;;;;;;;;;;;18.40;86.00;;;;;;5113136;28;20366;-54
2023/03/17 10:47:54;;;;;;;;;;;18.40;85.70;;;;;;5112603;28;20339;-56
2023/03/17 10:50:22;;;;;;;;;;;18.30;85.80;;;;;;5112401;28;19916;-59
2023/03/17 10:52:57;;;;;;;;;;;18.30;85.90;;;;;;5110946;28;19945;-59
2023/03/17 10:55:26;;;;;;;;;;;18.40;86.10;;;;;;5111169;28;19912;-56
2023/03/17 10:58:04;;;;;;;;;;;18.40;86.00;;;;;;5112283;28;19912;-56
2023/03/17 11:00:33;;;;;;;;;;;18.40;86.00;;;;;;5115373;28;19915;-56
2023/03/17 11:03:02;;;;;;;;;;;18.40;85.90;;;;;;5117377;28;19914;-55
2023/03/17 11:05:28;;;;;;;;;;;18.40;85.90;;;;;;5117336;28;19912;-56
2023/03/17 11:08:04;;;;;;;;;;;18.30;85.90;;;;;;5116802;28;20007;-54
2023/03/17 11:10:34;;;;;;;;;;;18.40;85.90;;;;;;5117189;28;19916;-55
2023/03/17 11:13:00;;;;;;;;;;;18.30;85.80;;;;;;5117133;28;19911;-55
2023/03/17 11:15:33;;;;;;;;;;;18.30;85.80;;;;;;5116822;28;20239;-57
2023/03/17 11:18:05;;;;;;;;;;;18.30;85.80;;;;;;5114312;28;19911;-58
2023/03/17 11:20:44;;;;;;;;;;;18.30;85.80;;;;;;5097691;28;20015;-63
2023/03/17 11:23:18;;;;;;;;;;;18.30;85.80;;;;;;5116318;28;19911;-63
2023/03/17 11:25:46;;;;;;;;;;;18.30;85.80;;;;;;5114356;28;19912;-63
2023/03/17 11:28:19;;;;;;;;;;;18.30;85.70;;;;;;5113627;28;19916;-63
2023/03/17 11:30:52;;;;;;;;;;;18.30;85.80;;;;;;5106107;28;19916;-56
2023/03/17 11:33:23;;;;;;;;;;;18.30;85.80;;;;;;5114187;28;20339;-64
2023/03/17 11:35:54;;;;;;;;;;;18.30;85.80;;;;;;5123640;27;19960;-63
2023/03/17 11:38:21;;;;;;;;;;;18.30;85.90;;;;;;5130000;27;20006;-63
2023/03/17 11:41:05;;;;;;;;;;;18.30;85.90;;;;;;5097507;28;19964;-62
2023/03/17 11:43:31;;;;;;;;;;;18.30;86.00;;;;;;5110181;28;19916;-60
2023/03/17 11:46:03;;;;;;;;;;;18.30;85.90;;;;;;5115145;28;19999;-63
2023/03/17 11:48:33;;;;;;;;;;;18.30;85.90;;;;;;5112437;28;19990;-59
2023/03/17 11:51:17;;;;;;;;;;;18.30;85.90;;;;;;5114855;28;20373;-57
2023/03/17 11:53:59;;;;;;;;;;;18.30;85.80;;;;;;5103808;28;20273;-58
2023/03/17 11:56:34;;;;;;;;;;;18.30;85.80;;;;;;5111469;28;19912;-58
2023/03/17 11:59:05;;;;;;;;;;;18.30;85.80;;;;;;5114467;28;20007;-54
2023/03/17 12:01:43;;;;;;;;;;;18.30;85.80;;;;;;5106086;28;20022;-56
2023/03/17 12:04:29;;;;;;;;;;;18.30;85.80;;;;;;5106674;28;20006;-57
2023/03/17 12:07:00;;;;;;;;;;;18.30;85.80;;;;;;5111513;28;19941;-56
2023/03/17 12:09:31;;;;;;;;;;;18.30;85.80;;;;;;5113160;28;20006;-58
2023/03/17 12:11:58;;;;;;;;;;;18.30;85.80;;;;;;5114416;28;19965;-58
2023/03/17 12:14:37;;;;;;;;;;;18.30;85.80;;;;;;5108389;28;20378;-57
2023/03/17 12:17:05;;;;;;;;;;;18.30;85.70;;;;;;5110327;28;19947;-58
2023/03/17 12:19:43;;;;;;;;;;;18.30;85.70;;;;;;5112454;28;19916;-57
2023/03/17 12:22:20;;;;;;;;;;;18.30;85.70;;;;;;5110837;28;20367;-58
2023/03/17 12:25:04;;;;;;;;;;;18.30;85.70;;;;;;5112727;28;19912;-60
2023/03/17 12:27:39;;;;;;;;;;;18.30;85.70;;;;;;5113580;28;19976;-58
2023/03/17 12:30:05;;;;;;;;;;;18.30;85.70;;;;;;5115446;28;20333;-59
2023/03/17 12:32:36;;;;;;;;;;;18.30;85.60;;;;;;5114881;28;20025;-59
2023/03/17 12:35:25;;;;;;;;;;;18.20;85.70;;;;;;5118145;27;20003;-58
2023/03/17 12:37:51;;;;;;;;;;;18.20;85.60;;;;;;5115329;28;19908;-59
2023/03/17 12:40:19;;;;;;;;;;;18.30;85.60;;;;;;5113906;28;19912;-65
2023/03/17 12:42:51;;;;;;;;;;;18.20;85.70;;;;;;5108848;28;20346;-55
2023/03/17 12:45:22;;;;;;;;;;;18.20;85.60;;;;;;5109206;28;20309;-61
2023/03/17 12:47:48;;;;;;;;;;;18.20;85.60;;;;;;5094690;28;19912;-59
2023/03/17 12:50:34;;;;;;;;;;;18.20;85.60;;;;;;5095873;28;21788;-59
2023/03/17 12:53:08;;;;;;;;;;;18.20;85.60;;;;;;5110543;28;19912;-58
2023/03/17 12:55:35;;;;;;;;;;;18.30;85.70;;;;;;5100483;28;19966;-59
2023/03/17 12:58:13;;;;;;;;;;;18.30;85.70;;;;;;5111603;28;19947;-60
2023/03/17 13:00:54;;;;;;;;;;;18.20;85.30;;;;;;5112944;28;20275;-58
2023/03/17 13:03:24;;;;;;;;;;;18.30;85.70;;;;;;5108922;28;20348;-57
2023/03/17 13:05:51;;;;;;;;;;;18.30;85.80;;;;;;5112601;28;19912;-59
2023/03/17 13:08:22;;;;;;;;;;;18.30;85.80;;;;;;5111496;28;19923;-55
2023/03/17 13:10:47;;;;;;;;;;;18.30;85.80;;;;;;5113690;28;20018;-55
2023/03/17 13:13:39;;;;;;;;;;;18.30;85.80;;;;;;5110223;28;19955;-59
2023/03/17 13:16:06;;;;;;;;;;;18.20;85.40;;;;;;5113583;27;19912;-60
2023/03/17 13:18:32;;;;;;;;;;;18.30;86.00;;;;;;5114555;28;20379;-61
2023/03/17 13:20:58;;;;;;;;;;;18.30;86.10;;;;;;5114409;28;20355;-62
2023/03/17 13:23:42;;;;;;;;;;;18.30;86.00;;;;;;5114302;27;19919;-55
2023/03/17 13:26:17;;;;;;;;;;;18.30;86.10;;;;;;5122136;27;19964;-55
2023/03/17 13:28:46;;;;;;;;;;;18.30;86.10;;;;;;5126030;27;19972;-55
2023/03/17 13:31:11;;;;;;;;;;;18.30;86.20;;;;;;5126823;27;19915;-57
2023/03/17 13:33:52;;;;;;;;;;;18.30;86.70;;;;;;5114430;28;19908;-57
2023/03/17 13:36:35;;;;;;;;;;;18.30;86.20;;;;;;5114195;28;19974;-56
2023/03/17 13:39:10;;;;;;;;;;;18.30;86.20;;;;;;5112536;28;20006;-56
2023/03/17 13:41:49;;;;;;;;;;;18.30;86.20;;;;;;5113597;28;19926;-57
2023/03/17 13:44:17;;;;;;;;;;;18.30;86.30;;;;;;5114198;28;19912;-58
2023/03/17 13:46:45;;;;;;;;;;;18.30;86.30;;;;;;5113808;28;19966;-58
2023/03/17 13:49:25;;;;;;;;;;;18.30;86.40;;;;;;5113954;28;19965;-54
2023/03/17 13:51:53;;;;;;;;;;;18.30;86.40;;;;;;5114058;28;19911;-56
2023/03/17 13:54:25;;;;;;;;;;;18.30;86.40;;;;;;5114143;28;19908;-56
2023/03/17 13:56:52;;;;;;;;;;;18.30;86.40;;;;;;5113901;28;19961;-54
2023/03/17 13:59:19;;;;;;;;;;;18.30;86.40;;;;;;5113977;28;19908;-56
2023/03/17 14:01:53;;;;;;;;;;;18.20;86.30;;;;;;5114094;28;19915;-52
2023/03/17 14:04:21;;;;;;;;;;;18.20;86.30;;;;;;5113786;28;19966;-56
2023/03/17 14:06:49;;;;;;;;;;;18.20;86.30;;;;;;5118019;28;19912;-56
2023/03/17 14:09:27;;;;;;;;;;;18.20;86.40;;;;;;5118170;28;19911;-55
2023/03/17 14:11:53;;;;;;;;;;;18.20;86.40;;;;;;5118376;28;19943;-55
2023/03/17 14:14:35;;;;;;;;;;;18.20;86.40;;;;;;5118178;28;20433;-55
2023/03/17 14:17:21;;;;;;;;;;;18.20;86.40;;;;;;5118275;28;19914;-56
2023/03/17 14:20:07;;;;;;;;;;;18.20;86.40;;;;;;5117996;28;19908;-56
2023/03/17 14:22:38;;;;;;;;;;;18.20;86.40;;;;;;5118272;28;19951;-58
2023/03/17 14:25:07;;;;;;;;;;;18.20;86.40;;;;;;5117964;28;19915;-54